sensor_id;sensor_type;location;lat;lon;timestamp;P1;durP1;ratioP1;P2;durP2;ratioP2
27979;SDS011;15315;50.836;4.430;2023-03-19T00:04:07;5.68;;;2.58;;
27979;SDS011;15315;50.836;4.430;2023-03-19T00:14:07;5.95;;;3.30;;
27979;SDS011;15315;50.836;4.430;2023-03-19T00:24:08;3.92;;;2.80;;
27979;SDS011;15315;50.836;4.430;2023-03-19T00:34:09;6.35;;;2.78;;
27979;SDS011;15315;50.836;4.430;2023-03-19T00:44:10;7.00;;;2.55;;
27979;SDS011;15315;50.836;4.430;2023-03-19T00:54:11;7.88;;;3.08;;
27979;SDS011;15315;50.836;4.430;2023-03-19T01:04:14;5.38;;;2.92;;
27979;SDS011;15315;50.836;4.430;2023-03-19T01:14:15;4.28;;;2.78;;
27979;SDS011;15315;50.836;4.430;2023-03-19T01:24:16;6.82;;;2.88;;
27979;SDS011;15315;50.836;4.430;2023-03-19T01:34:16;5.85;;;3.13;;
27979;SDS011;15315;50.836;4.430;2023-03-19T01:44:23;12.80;;;3.60;;
27979;SDS011;15315;50.836;4.430;2023-03-19T01:54:25;4.38;;;3.40;;
27979;SDS011;15315;50.836;4.430;2023-03-19T02:04:29;10.00;;;4.23;;
27979;SDS011;15315;50.836;4.430;2023-03-19T02:14:31;7.72;;;4.97;;
27979;SDS011;15315;50.836;4.430;2023-03-19T02:24:31;11.93;;;7.18;;
27979;SDS011;15315;50.836;4.430;2023-03-19T02:34:36;10.65;;;8.40;;
27979;SDS011;15315;50.836;4.430;2023-03-19T02:44:41;13.05;;;8.65;;
27979;SDS011;15315;50.836;4.430;2023-03-19T02:54:42;15.15;;;10.23;;
27979;SDS011;15315;50.836;4.430;2023-03-19T03:04:42;16.33;;;10.18;;
27979;SDS011;15315;50.836;4.430;2023-03-19T03:14:43;18.65;;;11.68;;
27979;SDS011;15315;50.836;4.430;2023-03-19T03:24:43;18.88;;;12.23;;
27979;SDS011;15315;50.836;4.430;2023-03-19T03:34:44;19.83;;;12.57;;
27979;SDS011;15315;50.836;4.430;2023-03-19T03:44:45;19.48;;;11.80;;
27979;SDS011;15315;50.836;4.430;2023-03-19T03:54:46;21.80;;;13.00;;
27979;SDS011;15315;50.836;4.430;2023-03-19T04:04:46;22.25;;;14.23;;
27979;SDS011;15315;50.836;4.430;2023-03-19T04:14:46;20.95;;;14.32;;
27979;SDS011;15315;50.836;4.430;2023-03-19T04:24:47;21.10;;;12.80;;
27979;SDS011;15315;50.836;4.430;2023-03-19T04:34:47;16.98;;;12.38;;
27979;SDS011;15315;50.836;4.430;2023-03-19T04:44:48;18.13;;;12.48;;
27979;SDS011;15315;50.836;4.430;2023-03-19T04:54:48;20.85;;;13.45;;
27979;SDS011;15315;50.836;4.430;2023-03-19T05:04:48;18.23;;;13.45;;
27979;SDS011;15315;50.836;4.430;2023-03-19T05:14:49;18.80;;;13.45;;
27979;SDS011;15315;50.836;4.430;2023-03-19T05:24:49;16.67;;;13.15;;
27979;SDS011;15315;50.836;4.430;2023-03-19T05:34:50;19.02;;;12.27;;
27979;SDS011;15315;50.836;4.430;2023-03-19T05:44:50;17.13;;;11.15;;
27979;SDS011;15315;50.836;4.430;2023-03-19T05:54:50;21.15;;;10.48;;
27979;SDS011;15315;50.836;4.430;2023-03-19T06:04:51;20.85;;;8.82;;
27979;SDS011;15315;50.836;4.430;2023-03-19T06:14:51;14.57;;;8.07;;
27979;SDS011;15315;50.836;4.430;2023-03-19T06:24:52;22.67;;;7.40;;
27979;SDS011;15315;50.836;4.430;2023-03-19T06:34:52;20.17;;;7.70;;
27979;SDS011;15315;50.836;4.430;2023-03-19T06:44:55;14.13;;;8.00;;
27979;SDS011;15315;50.836;4.430;2023-03-19T06:54:55;11.68;;;7.35;;
27979;SDS011;15315;50.836;4.430;2023-03-19T07:04:56;20.40;;;7.45;;
27979;SDS011;15315;50.836;4.430;2023-03-19T07:14:56;15.60;;;6.75;;
27979;SDS011;15315;50.836;4.430;2023-03-19T07:24:56;19.35;;;7.40;;
27979;SDS011;15315;50.836;4.430;2023-03-19T07:34:57;16.63;;;6.65;;
27979;SDS011;15315;50.836;4.430;2023-03-19T07:44:57;16.13;;;6.97;;
27979;SDS011;15315;50.836;4.430;2023-03-19T07:54:57;18.65;;;6.03;;
27979;SDS011;15315;50.836;4.430;2023-03-19T08:04:58;22.90;;;6.13;;
27979;SDS011;15315;50.836;4.430;2023-03-19T08:15:01;19.80;;;5.60;;
27979;SDS011;15315;50.836;4.430;2023-03-19T08:25:02;16.40;;;4.60;;
27979;SDS011;15315;50.836;4.430;2023-03-19T08:35:03;21.45;;;3.60;;
27979;SDS011;15315;50.836;4.430;2023-03-19T08:45:07;21.00;;;3.75;;
27979;SDS011;15315;50.836;4.430;2023-03-19T08:55:08;17.20;;;3.35;;
27979;SDS011;15315;50.836;4.430;2023-03-19T09:05:09;14.73;;;3.75;;
27979;SDS011;15315;50.836;4.430;2023-03-19T09:15:10;18.13;;;3.83;;
27979;SDS011;15315;50.836;4.430;2023-03-19T09:25:10;15.88;;;3.75;;
27979;SDS011;15315;50.836;4.430;2023-03-19T09:35:11;21.25;;;5.15;;
27979;SDS011;15315;50.836;4.430;2023-03-19T09:45:12;17.95;;;4.00;;
27979;SDS011;15315;50.836;4.430;2023-03-19T10:15:53;14.57;;;4.45;;
27979;SDS011;15315;50.836;4.430;2023-03-19T10:25:55;11.85;;;3.88;;
27979;SDS011;15315;50.836;4.430;2023-03-19T10:36:01;15.20;;;4.13;;
27979;SDS011;15315;50.836;4.430;2023-03-19T10:46:04;13.30;;;4.28;;
27979;SDS011;15315;50.836;4.430;2023-03-19T10:56:06;18.20;;;4.03;;
27979;SDS011;15315;50.836;4.430;2023-03-19T11:16:27;13.73;;;3.95;;
27979;SDS011;15315;50.836;4.430;2023-03-19T11:26:28;16.75;;;5.75;;
27979;SDS011;15315;50.836;4.430;2023-03-19T11:36:32;16.17;;;7.00;;
27979;SDS011;15315;50.836;4.430;2023-03-19T11:46:56;21.63;;;7.00;;
27979;SDS011;15315;50.836;4.430;2023-03-19T11:57:03;16.08;;;6.20;;
27979;SDS011;15315;50.836;4.430;2023-03-19T12:07:22;17.42;;;6.95;;
27979;SDS011;15315;50.836;4.430;2023-03-19T12:48:57;10.05;;;5.55;;
27979;SDS011;15315;50.836;4.430;2023-03-19T12:59:01;15.23;;;6.60;;
27979;SDS011;15315;50.836;4.430;2023-03-19T13:19:39;12.05;;;6.65;;
27979;SDS011;15315;50.836;4.430;2023-03-19T13:50:49;23.08;;;10.05;;
27979;SDS011;15315;50.836;4.430;2023-03-19T14:00:55;16.08;;;7.80;;
27979;SDS011;15315;50.836;4.430;2023-03-19T14:10:58;12.73;;;7.03;;
27979;SDS011;15315;50.836;4.430;2023-03-19T14:21:03;9.98;;;6.05;;
27979;SDS011;15315;50.836;4.430;2023-03-19T14:31:05;8.15;;;5.38;;
27979;SDS011;15315;50.836;4.430;2023-03-19T14:41:16;11.05;;;6.50;;
27979;SDS011;15315;50.836;4.430;2023-03-19T15:01:53;11.57;;;5.75;;
27979;SDS011;15315;50.836;4.430;2023-03-19T15:22:25;8.97;;;4.20;;
27979;SDS011;15315;50.836;4.430;2023-03-19T15:32:36;8.98;;;3.10;;
27979;SDS011;15315;50.836;4.430;2023-03-19T15:42:38;11.40;;;3.38;;
27979;SDS011;15315;50.836;4.430;2023-03-19T15:52:40;8.45;;;3.83;;
27979;SDS011;15315;50.836;4.430;2023-03-19T16:02:42;8.32;;;3.58;;
27979;SDS011;15315;50.836;4.430;2023-03-19T16:12:49;6.77;;;4.10;;
27979;SDS011;15315;50.836;4.430;2023-03-19T16:22:53;8.73;;;4.60;;
27979;SDS011;15315;50.836;4.430;2023-03-19T16:33:04;11.85;;;5.95;;
27979;SDS011;15315;50.836;4.430;2023-03-19T16:43:07;11.18;;;6.10;;
27979;SDS011;15315;50.836;4.430;2023-03-19T16:53:23;11.95;;;6.45;;
27979;SDS011;15315;50.836;4.430;2023-03-19T17:03:30;14.10;;;5.63;;
27979;SDS011;15315;50.836;4.430;2023-03-19T17:13:31;11.48;;;6.22;;
27979;SDS011;15315;50.836;4.430;2023-03-19T17:23:34;8.68;;;4.88;;
27979;SDS011;15315;50.836;4.430;2023-03-19T17:33:34;7.28;;;4.32;;
27979;SDS011;15315;50.836;4.430;2023-03-19T17:43:35;9.32;;;4.93;;
27979;SDS011;15315;50.836;4.430;2023-03-19T17:53:36;10.98;;;4.90;;
27979;SDS011;15315;50.836;4.430;2023-03-19T18:03:36;7.07;;;5.05;;
27979;SDS011;15315;50.836;4.430;2023-03-19T18:13:37;10.10;;;5.03;;
27979;SDS011;15315;50.836;4.430;2023-03-19T18:23:37;10.30;;;4.85;;
27979;SDS011;15315;50.836;4.430;2023-03-19T18:33:37;9.70;;;4.90;;
27979;SDS011;15315;50.836;4.430;2023-03-19T18:43:38;8.32;;;3.88;;
27979;SDS011;15315;50.836;4.430;2023-03-19T18:53:38;7.22;;;3.25;;
27979;SDS011;15315;50.836;4.430;2023-03-19T19:03:39;6.57;;;3.03;;
27979;SDS011;15315;50.836;4.430;2023-03-19T19:13:42;7.20;;;3.25;;
27979;SDS011;15315;50.836;4.430;2023-03-19T19:23:47;5.75;;;3.28;;
27979;SDS011;15315;50.836;4.430;2023-03-19T19:33:47;12.63;;;4.28;;
27979;SDS011;15315;50.836;4.430;2023-03-19T19:43:48;9.02;;;4.30;;
27979;SDS011;15315;50.836;4.430;2023-03-19T19:53:52;5.30;;;2.93;;
27979;SDS011;15315;50.836;4.430;2023-03-19T20:03:53;7.28;;;3.17;;
27979;SDS011;15315;50.836;4.430;2023-03-19T20:13:53;5.78;;;2.80;;
27979;SDS011;15315;50.836;4.430;2023-03-19T20:23:54;4.00;;;2.78;;
27979;SDS011;15315;50.836;4.430;2023-03-19T20:33:57;6.80;;;4.10;;
27979;SDS011;15315;50.836;4.430;2023-03-19T20:43:58;10.63;;;5.03;;
27979;SDS011;15315;50.836;4.430;2023-03-19T20:54:01;9.52;;;4.57;;
27979;SDS011;15315;50.836;4.430;2023-03-19T21:04:03;9.70;;;4.32;;
27979;SDS011;15315;50.836;4.430;2023-03-19T21:14:04;11.38;;;5.18;;
27979;SDS011;15315;50.836;4.430;2023-03-19T21:24:16;8.00;;;4.93;;
27979;SDS011;15315;50.836;4.430;2023-03-19T21:34:19;8.07;;;4.20;;
27979;SDS011;15315;50.836;4.430;2023-03-19T21:44:19;8.77;;;4.40;;
27979;SDS011;15315;50.836;4.430;2023-03-19T21:54:22;7.75;;;4.43;;
27979;SDS011;15315;50.836;4.430;2023-03-19T22:04:25;9.85;;;5.22;;
27979;SDS011;15315;50.836;4.430;2023-03-19T22:14:25;9.35;;;5.00;;
27979;SDS011;15315;50.836;4.430;2023-03-19T22:24:26;12.65;;;6.00;;
27979;SDS011;15315;50.836;4.430;2023-03-19T22:34:26;15.25;;;6.20;;
27979;SDS011;15315;50.836;4.430;2023-03-19T22:44:28;13.55;;;6.57;;
27979;SDS011;15315;50.836;4.430;2023-03-19T22:54:30;16.48;;;7.60;;
27979;SDS011;15315;50.836;4.430;2023-03-19T23:04:31;13.88;;;7.47;;
27979;SDS011;15315;50.836;4.430;2023-03-19T23:14:32;12.82;;;7.88;;
27979;SDS011;15315;50.836;4.430;2023-03-19T23:24:33;12.75;;;7.70;;
27979;SDS011;15315;50.836;4.430;2023-03-19T23:34:33;21.02;;;8.93;;
27979;SDS011;15315;50.836;4.430;2023-03-19T23:44:34;19.40;;;8.93;;
27979;SDS011;15315;50.836;4.430;2023-03-19T23:54:36;11.25;;;7.20;;
